createdAt,value
2022-10-03T00:00:43.981Z,4.00
2022-10-03T00:01:44.206Z,4.00
2022-10-03T00:02:43.995Z,4.00
2022-10-03T00:03:44.151Z,4.00
2022-10-03T00:04:43.938Z,4.00
2022-10-03T00:05:43.926Z,4.00
2022-10-03T00:06:43.924Z,4.00
2022-10-03T00:07:43.906Z,4.00
2022-10-03T00:08:43.892Z,4.00
2022-10-03T00:09:43.886Z,4.00
2022-10-03T00:10:43.871Z,4.00
2022-10-03T00:11:43.858Z,4.00
2022-10-03T00:12:43.845Z,4.00
2022-10-03T00:13:43.833Z,4.00
2022-10-03T00:14:43.827Z,4.00
2022-10-03T00:15:43.832Z,4.00
2022-10-03T00:16:43.806Z,4.00
2022-10-03T00:17:43.790Z,4.00
2022-10-03T00:18:45.273Z,4.00
2022-10-03T00:19:43.763Z,4.00
2022-10-03T00:20:43.751Z,4.00
2022-10-03T00:21:43.740Z,4.00
2022-10-03T00:22:43.733Z,4.00
2022-10-03T00:23:43.713Z,4.00
2022-10-03T00:24:43.709Z,4.00
2022-10-03T00:25:43.689Z,4.00
2022-10-03T00:26:43.684Z,4.00
2022-10-03T00:27:43.674Z,4.00
2022-10-03T00:28:43.661Z,4.00
2022-10-03T00:29:43.896Z,4.00
2022-10-03T00:30:43.636Z,4.00
2022-10-03T00:31:44.066Z,4.00
2022-10-03T00:32:43.607Z,4.00
2022-10-03T00:33:43.598Z,4.00
2022-10-03T00:34:43.589Z,4.00
2022-10-03T00:35:43.579Z,4.00
2022-10-03T00:36:43.561Z,4.00
2022-10-03T00:37:43.555Z,4.00
2022-10-03T00:38:43.541Z,4.00
2022-10-03T00:39:43.526Z,4.00
2022-10-03T00:40:43.622Z,4.00
2022-10-03T00:41:43.509Z,4.00
2022-10-03T00:42:43.493Z,4.00
2022-10-03T00:43:43.482Z,4.00
2022-10-03T00:44:43.468Z,4.00
2022-10-03T00:45:43.459Z,4.00
2022-10-03T00:46:43.547Z,4.00
2022-10-03T00:47:43.442Z,4.00
2022-10-03T00:48:43.429Z,4.00
2022-10-03T00:49:43.414Z,4.00
2022-10-03T00:50:43.707Z,4.00
2022-10-03T00:51:43.392Z,4.00
2022-10-03T00:52:43.381Z,4.00
2022-10-03T00:53:43.368Z,4.00
2022-10-03T00:54:43.358Z,4.00
2022-10-03T00:55:43.355Z,4.00
2022-10-03T00:56:43.331Z,4.00
2022-10-03T00:57:43.328Z,4.00
2022-10-03T00:58:43.312Z,4.00
2022-10-03T00:59:46.208Z,4.00
2022-10-03T01:00:43.324Z,4.00
2022-10-03T01:01:43.716Z,4.00
2022-10-03T01:02:43.269Z,4.00
2022-10-03T01:03:43.256Z,4.00
2022-10-03T01:04:43.241Z,4.00
2022-10-03T01:05:43.229Z,4.00
2022-10-03T01:06:43.221Z,4.00
2022-10-03T01:07:43.214Z,4.00
2022-10-03T01:08:43.199Z,4.00
2022-10-03T01:09:43.186Z,4.00
2022-10-03T01:10:43.178Z,4.00
2022-10-03T01:11:43.227Z,4.00
2022-10-03T01:12:43.249Z,4.00
2022-10-03T01:13:43.678Z,4.00
2022-10-03T01:14:43.131Z,4.00
2022-10-03T01:15:43.198Z,4.00
2022-10-03T01:16:43.105Z,4.00
2022-10-03T01:17:43.093Z,4.00
2022-10-03T01:18:43.087Z,4.00
2022-10-03T01:19:43.069Z,4.00
2022-10-03T01:20:43.066Z,4.00
2022-10-03T01:21:43.050Z,4.00
2022-10-03T01:22:43.139Z,4.00
2022-10-03T01:23:43.031Z,4.00
2022-10-03T01:24:43.017Z,4.00
2022-10-03T01:25:43.005Z,4.00
2022-10-03T01:26:42.998Z,4.00
2022-10-03T01:27:42.986Z,4.00
2022-10-03T01:28:42.972Z,4.00
2022-10-03T01:29:42.961Z,4.00
2022-10-03T01:30:42.949Z,4.00
2022-10-03T01:31:43.145Z,4.00
2022-10-03T01:32:43.023Z,4.00
2022-10-03T01:33:42.920Z,4.00
2022-10-03T01:34:42.905Z,4.00
2022-10-03T01:35:42.893Z,4.00
2022-10-03T01:36:42.876Z,4.00
2022-10-03T01:37:42.864Z,4.00
2022-10-03T01:38:42.860Z,4.00
2022-10-03T01:39:42.844Z,4.00
2022-10-03T01:40:42.839Z,4.00
2022-10-03T01:41:43.110Z,4.00
2022-10-03T01:42:43.163Z,4.00
2022-10-03T01:43:42.802Z,4.00
2022-10-03T01:44:42.793Z,4.00
2022-10-03T01:45:42.781Z,4.00
2022-10-03T01:46:42.815Z,4.00
2022-10-03T01:47:42.752Z,4.00
2022-10-03T01:48:42.749Z,4.00
2022-10-03T01:49:42.727Z,4.00
2022-10-03T01:50:42.718Z,4.00
2022-10-03T01:51:42.834Z,4.00
2022-10-03T01:52:42.698Z,4.00
2022-10-03T01:53:44.188Z,4.00
2022-10-03T01:54:42.671Z,4.00
2022-10-03T01:55:42.668Z,4.00
2022-10-03T01:56:42.654Z,4.00
2022-10-03T01:57:42.637Z,4.00
2022-10-03T01:58:42.630Z,4.00
2022-10-03T01:59:42.619Z,4.00
2022-10-03T02:00:42.666Z,4.00
2022-10-03T02:01:42.826Z,4.00
2022-10-03T02:02:42.586Z,4.00
2022-10-03T02:03:42.576Z,4.00
2022-10-03T02:04:42.564Z,4.00
2022-10-03T02:05:42.553Z,4.00
2022-10-03T02:06:42.539Z,4.00
2022-10-03T02:07:42.525Z,4.00
2022-10-03T02:08:42.516Z,4.00
2022-10-03T02:09:42.505Z,4.00
2022-10-03T02:10:42.492Z,4.00
2022-10-03T02:11:42.623Z,4.00
2022-10-03T02:12:42.467Z,4.00
2022-10-03T02:13:42.458Z,4.00
2022-10-03T02:14:42.547Z,4.00
2022-10-03T02:15:42.436Z,4.00
2022-10-03T02:16:42.424Z,4.00
2022-10-03T02:17:42.408Z,4.00
2022-10-03T02:18:42.396Z,4.00
2022-10-03T02:19:42.388Z,4.00
2022-10-03T02:20:42.775Z,4.00
2022-10-03T02:21:42.428Z,4.00
2022-10-03T02:22:42.361Z,4.00
2022-10-03T02:23:42.347Z,4.00
2022-10-03T02:24:42.339Z,4.00
2022-10-03T02:25:42.332Z,4.00
2022-10-03T02:26:42.712Z,4.00
2022-10-03T02:27:42.294Z,4.00
2022-10-03T02:28:42.285Z,4.00
2022-10-03T02:29:42.277Z,4.00
2022-10-03T02:30:42.263Z,4.00
2022-10-03T02:31:42.619Z,4.00
2022-10-03T02:32:42.249Z,4.00
2022-10-03T02:33:42.225Z,4.00
2022-10-03T02:34:42.220Z,4.00
2022-10-03T02:35:42.209Z,4.00
2022-10-03T02:36:42.195Z,4.00
2022-10-03T02:37:42.185Z,4.00
2022-10-03T02:38:42.171Z,4.00
2022-10-03T02:39:42.160Z,4.00
2022-10-03T02:40:42.144Z,4.00
2022-10-03T02:41:42.451Z,4.00
2022-10-03T02:42:42.123Z,4.00
2022-10-03T02:43:42.117Z,4.00
2022-10-03T02:44:42.097Z,4.00
2022-10-03T02:45:42.111Z,4.00
2022-10-03T02:46:42.075Z,4.00
2022-10-03T02:47:42.169Z,4.00
2022-10-03T02:48:42.051Z,4.00
2022-10-03T02:49:42.044Z,4.00
2022-10-03T02:50:42.027Z,4.00
2022-10-03T02:51:42.227Z,4.00
2022-10-03T02:52:42.009Z,4.00
2022-10-03T02:53:41.993Z,4.00
2022-10-03T02:54:41.985Z,4.00
2022-10-03T02:55:41.969Z,4.00
2022-10-03T02:56:41.956Z,4.00
2022-10-03T02:57:41.947Z,4.00
2022-10-03T02:58:41.936Z,4.00
2022-10-03T02:59:41.930Z,4.00
2022-10-03T03:00:41.970Z,4.00
2022-10-03T03:01:42.258Z,4.00
2022-10-03T03:02:41.990Z,4.00
2022-10-03T03:03:41.875Z,4.00
2022-10-03T03:04:41.862Z,4.00
2022-10-03T03:05:41.855Z,4.00
2022-10-03T03:06:41.841Z,4.00
2022-10-03T03:07:41.843Z,4.00
2022-10-03T03:08:41.821Z,4.00
2022-10-03T03:09:41.804Z,4.00
2022-10-03T03:10:41.795Z,4.00
2022-10-03T03:11:42.167Z,4.00
2022-10-03T03:12:41.772Z,4.00
2022-10-03T03:13:41.762Z,4.00
2022-10-03T03:14:41.752Z,4.00
2022-10-03T03:15:41.740Z,4.00
2022-10-03T03:16:41.775Z,4.00
2022-10-03T03:17:41.712Z,4.00
2022-10-03T03:18:41.699Z,4.00
2022-10-03T03:19:41.693Z,4.00
2022-10-03T03:20:41.678Z,4.00
2022-10-03T03:21:42.070Z,4.00
2022-10-03T03:22:41.652Z,4.00
2022-10-03T03:23:41.651Z,4.00
2022-10-03T03:24:41.636Z,4.00
2022-10-03T03:25:41.622Z,4.00
2022-10-03T03:26:41.605Z,4.00
2022-10-03T03:27:41.600Z,4.00
2022-10-03T03:28:41.586Z,4.00
2022-10-03T03:29:41.573Z,4.00
2022-10-03T03:30:41.565Z,4.00
2022-10-03T03:31:41.841Z,4.00
2022-10-03T03:32:41.541Z,4.00
2022-10-03T03:33:41.623Z,4.00
2022-10-03T03:34:41.519Z,4.00
2022-10-03T03:35:41.506Z,4.00
2022-10-03T03:36:41.495Z,4.00
2022-10-03T03:37:41.483Z,4.00
2022-10-03T03:38:41.469Z,4.00
2022-10-03T03:39:41.462Z,4.00
2022-10-03T03:40:41.448Z,4.00
2022-10-03T03:41:41.798Z,4.00
2022-10-03T03:42:41.418Z,4.00
2022-10-03T03:43:41.417Z,4.00
2022-10-03T03:44:41.500Z,4.00
2022-10-03T03:45:41.481Z,4.00
2022-10-03T03:46:41.371Z,4.00
2022-10-03T03:47:41.362Z,4.00
2022-10-03T03:48:41.348Z,4.00
2022-10-03T03:49:41.341Z,4.00
2022-10-03T03:50:41.325Z,4.00
2022-10-03T03:51:41.571Z,4.00
2022-10-03T03:52:41.303Z,4.00
2022-10-03T03:53:41.291Z,4.00
2022-10-03T03:54:41.286Z,4.00
2022-10-03T03:55:41.371Z,4.00
2022-10-03T03:56:41.253Z,4.00
2022-10-03T03:57:41.256Z,4.00
2022-10-03T03:58:41.230Z,4.00
2022-10-03T03:59:41.225Z,4.00
2022-10-03T04:00:41.324Z,4.00
2022-10-03T04:01:41.501Z,4.00
2022-10-03T04:02:41.188Z,4.00
2022-10-03T04:03:41.174Z,4.00
2022-10-03T04:04:41.169Z,4.00
2022-10-03T04:05:41.156Z,4.00
2022-10-03T04:06:41.141Z,4.00
2022-10-03T04:07:41.129Z,4.00
2022-10-03T04:08:41.116Z,4.00
2022-10-03T04:09:41.103Z,4.00
2022-10-03T04:10:41.190Z,4.00
2022-10-03T04:11:41.265Z,4.00
2022-10-03T04:12:41.069Z,4.00
2022-10-03T04:13:41.056Z,4.00
2022-10-03T04:14:41.045Z,4.00
2022-10-03T04:15:41.036Z,4.00
2022-10-03T04:16:41.066Z,4.00
2022-10-03T04:17:41.012Z,4.00
2022-10-03T04:18:41.001Z,4.00
2022-10-03T04:19:40.986Z,4.00
2022-10-03T04:20:41.073Z,4.00
2022-10-03T04:21:41.279Z,4.00
2022-10-03T04:22:40.955Z,4.00
2022-10-03T04:23:40.941Z,4.00
2022-10-03T04:24:40.986Z,4.00
2022-10-03T04:25:40.918Z,4.00
2022-10-03T04:26:40.901Z,4.00
2022-10-03T04:27:40.890Z,4.00
2022-10-03T04:28:40.878Z,4.00
2022-10-03T04:29:40.868Z,4.00
2022-10-03T04:30:40.856Z,4.00
2022-10-03T04:31:41.035Z,4.00
2022-10-03T04:32:40.836Z,4.00
2022-10-03T04:33:40.820Z,4.00
2022-10-03T04:34:40.810Z,4.00
2022-10-03T04:35:40.900Z,4.00
2022-10-03T04:36:40.788Z,4.00
2022-10-03T04:37:40.774Z,4.00
2022-10-03T04:38:40.761Z,4.00
2022-10-03T04:39:40.754Z,4.00
2022-10-03T04:40:40.738Z,4.00
2022-10-03T04:41:43.057Z,4.00
2022-10-03T04:42:40.717Z,4.00
2022-10-03T04:43:40.707Z,4.00
2022-10-03T04:44:40.687Z,4.00
2022-10-03T04:45:40.807Z,4.00
2022-10-03T04:46:40.763Z,4.00
2022-10-03T04:47:40.652Z,4.00
2022-10-03T04:48:40.638Z,4.00
2022-10-03T04:49:40.632Z,4.00
2022-10-03T04:50:40.618Z,4.00
2022-10-03T04:51:40.819Z,4.00
2022-10-03T04:52:40.694Z,4.00
2022-10-03T04:53:40.578Z,4.00
2022-10-03T04:54:40.574Z,4.00
2022-10-03T04:55:40.561Z,4.00
2022-10-03T04:56:40.546Z,4.00
2022-10-03T04:57:40.636Z,4.00
2022-10-03T04:58:40.519Z,4.00
2022-10-03T04:59:40.509Z,4.00
2022-10-03T05:00:40.546Z,4.00
2022-10-03T05:01:40.680Z,4.00
2022-10-03T05:02:40.540Z,4.00
2022-10-03T05:03:40.563Z,4.00
2022-10-03T05:04:40.447Z,4.00
2022-10-03T05:05:40.439Z,4.00
2022-10-03T05:06:40.429Z,4.00
2022-10-03T05:07:40.417Z,4.00
2022-10-03T05:08:40.402Z,4.00
2022-10-03T05:09:40.396Z,4.00
2022-10-03T05:10:40.378Z,4.00
2022-10-03T05:11:40.603Z,4.00
2022-10-03T05:12:40.352Z,4.00
2022-10-03T05:13:40.344Z,4.00
2022-10-03T05:14:40.433Z,4.00
2022-10-03T05:15:40.324Z,4.00
2022-10-03T05:16:40.374Z,4.00
2022-10-03T05:17:40.294Z,4.00
2022-10-03T05:18:40.283Z,4.00
2022-10-03T05:19:40.277Z,4.00
2022-10-03T05:20:40.259Z,4.00
2022-10-03T05:21:40.381Z,4.00
2022-10-03T05:22:40.236Z,4.00
2022-10-03T05:23:40.230Z,4.00
2022-10-03T05:24:40.216Z,4.00
2022-10-03T05:25:40.204Z,4.00
2022-10-03T05:26:45.191Z,4.00
2022-10-03T05:27:40.179Z,4.00
2022-10-03T05:28:40.163Z,4.00
2022-10-03T05:29:40.151Z,4.00
2022-10-03T05:30:40.145Z,4.00
2022-10-03T05:31:40.409Z,4.00
2022-10-03T05:32:40.118Z,4.00
2022-10-03T05:33:40.108Z,4.00
2022-10-03T05:34:40.191Z,4.00
2022-10-03T05:35:40.086Z,4.00
2022-10-03T05:36:40.071Z,4.00
2022-10-03T05:37:40.057Z,4.00
2022-10-03T05:38:40.048Z,4.00
2022-10-03T05:39:40.045Z,4.00
2022-10-03T05:40:40.021Z,4.00
2022-10-03T05:41:40.235Z,4.00
2022-10-03T05:42:39.997Z,4.00
2022-10-03T05:43:39.988Z,4.00
2022-10-03T05:44:40.070Z,4.00
2022-10-03T05:45:40.061Z,4.00
2022-10-03T05:46:39.950Z,4.00
2022-10-03T05:47:39.940Z,4.00
2022-10-03T05:48:39.935Z,4.00
2022-10-03T05:49:39.985Z,4.00
2022-10-03T05:50:39.906Z,4.00
2022-10-03T05:51:40.088Z,4.00
2022-10-03T05:52:39.885Z,4.00
2022-10-03T05:53:39.869Z,4.00
2022-10-03T05:54:39.860Z,4.00
2022-10-03T05:55:39.848Z,4.00
2022-10-03T05:56:41.186Z,4.00
2022-10-03T05:57:39.823Z,4.00
2022-10-03T05:58:39.811Z,4.00
2022-10-03T05:59:39.908Z,4.00
2022-10-03T06:00:39.784Z,4.00
2022-10-03T06:01:40.000Z,4.00
2022-10-03T06:02:39.875Z,4.00
2022-10-03T06:03:39.755Z,4.00
2022-10-03T06:04:39.741Z,4.00
2022-10-03T06:05:39.727Z,4.00
2022-10-03T06:06:39.717Z,4.00
2022-10-03T06:07:39.706Z,4.00
2022-10-03T06:08:39.698Z,4.00
2022-10-03T06:09:39.684Z,4.00
2022-10-03T06:10:39.769Z,4.00
2022-10-03T06:11:39.876Z,4.00
2022-10-03T06:12:39.646Z,4.00
2022-10-03T06:13:39.635Z,4.00
2022-10-03T06:14:39.619Z,4.00
2022-10-03T06:15:39.647Z,4.00
2022-10-03T06:16:39.596Z,4.00
2022-10-03T06:17:43.032Z,4.00
2022-10-03T06:18:39.576Z,4.00
2022-10-03T06:19:39.561Z,4.00
2022-10-03T06:20:39.555Z,4.00
2022-10-03T06:21:39.691Z,4.00
2022-10-03T06:22:39.525Z,4.00
2022-10-03T06:23:39.516Z,4.00
2022-10-03T06:24:39.506Z,4.00
2022-10-03T06:25:39.495Z,4.00
2022-10-03T06:26:39.483Z,4.00
2022-10-03T06:27:39.568Z,4.00
2022-10-03T06:28:39.459Z,4.00
2022-10-03T06:29:39.445Z,4.00
2022-10-03T06:30:39.486Z,4.00
2022-10-03T06:31:39.580Z,4.00
2022-10-03T06:32:39.409Z,4.00
2022-10-03T06:33:39.498Z,4.00
2022-10-03T06:34:39.385Z,4.00
2022-10-03T06:35:39.375Z,4.00
2022-10-03T06:36:39.361Z,4.00
2022-10-03T06:37:39.349Z,4.00
2022-10-03T06:38:39.439Z,4.00
2022-10-03T06:39:39.321Z,4.00
2022-10-03T06:40:39.318Z,4.00
2022-10-03T06:41:39.471Z,4.00
2022-10-03T06:42:39.286Z,4.00
2022-10-03T06:43:39.381Z,4.00
2022-10-03T06:44:39.261Z,4.00
2022-10-03T06:45:39.253Z,4.00
2022-10-03T06:46:39.303Z,4.00
2022-10-03T06:47:39.228Z,4.00
2022-10-03T06:48:39.314Z,4.00
2022-10-03T06:49:39.200Z,4.00
2022-10-03T06:50:39.192Z,4.00
2022-10-03T06:51:39.220Z,4.00
2022-10-03T06:52:39.172Z,4.00
2022-10-03T06:53:39.257Z,4.00
2022-10-03T06:54:39.152Z,4.00
2022-10-03T06:55:39.135Z,4.00
2022-10-03T06:56:39.122Z,4.00
2022-10-03T06:57:39.131Z,4.00
2022-10-03T06:58:39.198Z,4.00
2022-10-03T06:59:39.081Z,4.00
2022-10-03T07:00:39.073Z,4.00
2022-10-03T07:01:39.372Z,4.00
2022-10-03T07:02:39.112Z,4.00
2022-10-03T07:03:39.132Z,4.00
2022-10-03T07:04:39.024Z,4.00
2022-10-03T07:05:41.107Z,4.00
2022-10-03T07:06:39.000Z,4.00
2022-10-03T07:07:38.987Z,4.00
2022-10-03T07:08:39.075Z,4.00
2022-10-03T07:09:38.966Z,4.00
2022-10-03T07:10:38.953Z,4.00
2022-10-03T07:11:39.156Z,4.00
2022-10-03T07:12:38.931Z,4.00
2022-10-03T07:13:39.010Z,4.00
2022-10-03T07:14:38.907Z,4.00
2022-10-03T07:16:08.407Z,4.00
2022-10-03T07:16:38.929Z,4.00
2022-10-03T07:17:38.868Z,4.00
2022-10-03T07:18:38.957Z,4.00
2022-10-03T07:19:38.841Z,4.00
2022-10-03T07:20:38.826Z,4.00
2022-10-03T07:21:39.074Z,4.00
2022-10-03T07:22:38.808Z,4.00
2022-10-03T07:23:38.895Z,4.00
2022-10-03T07:24:38.787Z,4.00
2022-10-03T07:25:38.771Z,4.00
2022-10-03T07:26:38.756Z,4.00
2022-10-03T07:27:38.743Z,4.00
2022-10-03T07:28:38.875Z,4.00
2022-10-03T07:29:38.721Z,4.00
2022-10-03T07:30:38.707Z,4.00
2022-10-03T07:31:38.959Z,4.00
2022-10-03T07:32:38.686Z,4.00
2022-10-03T07:33:39.284Z,4.00
2022-10-03T07:34:38.765Z,4.00
2022-10-03T07:35:38.646Z,4.00
2022-10-03T07:36:38.635Z,4.00
2022-10-03T07:37:38.625Z,4.00
2022-10-03T07:38:38.614Z,4.00
2022-10-03T07:39:38.602Z,4.00
2022-10-03T07:40:38.693Z,4.00
2022-10-03T07:41:38.915Z,4.00
2022-10-03T07:42:38.563Z,4.00
2022-10-03T07:43:38.552Z,4.00
2022-10-03T07:44:38.540Z,4.00
2022-10-03T07:45:38.526Z,4.00
2022-10-03T07:46:38.526Z,4.00
2022-10-03T07:47:38.504Z,4.00
2022-10-03T07:48:38.498Z,4.00
2022-10-03T07:49:38.475Z,4.00
2022-10-03T07:50:38.466Z,4.00
2022-10-03T07:51:38.748Z,4.00
2022-10-03T07:52:38.443Z,4.00
2022-10-03T07:53:38.435Z,4.00
2022-10-03T07:54:38.416Z,4.00
2022-10-03T07:55:38.406Z,4.00
2022-10-03T07:56:38.495Z,4.00
2022-10-03T07:57:38.398Z,4.00
2022-10-03T07:58:38.369Z,4.00
2022-10-03T07:59:38.362Z,4.00
2022-10-03T08:00:40.647Z,4.00
2022-10-03T08:01:38.651Z,4.00
2022-10-03T08:02:38.360Z,4.00
2022-10-03T08:03:38.349Z,4.00
2022-10-03T08:04:38.297Z,4.00
2022-10-03T08:05:38.285Z,4.00
2022-10-03T08:06:38.273Z,4.00
2022-10-03T08:07:38.264Z,4.00
2022-10-03T08:08:38.246Z,4.00
2022-10-03T08:09:38.238Z,4.00
2022-10-03T08:10:40.670Z,4.00
2022-10-03T08:11:38.422Z,4.00
2022-10-03T08:12:38.201Z,4.00
2022-10-03T08:13:38.189Z,4.00
2022-10-03T08:14:38.179Z,4.00
2022-10-03T08:15:38.236Z,4.00
2022-10-03T08:16:38.157Z,4.00
2022-10-03T08:17:38.134Z,4.00
2022-10-03T08:18:38.123Z,4.00
2022-10-03T08:19:38.118Z,4.00
2022-10-03T08:20:38.104Z,4.00
2022-10-03T08:21:38.231Z,4.00
2022-10-03T08:22:38.079Z,4.00
2022-10-03T08:23:38.068Z,8.00
2022-10-03T08:24:38.055Z,8.00
2022-10-03T08:25:38.042Z,8.00
2022-10-03T08:26:38.131Z,8.00
2022-10-03T08:27:38.022Z,8.00
2022-10-03T08:28:38.075Z,4.00
2022-10-03T08:29:37.991Z,4.00
2022-10-03T08:30:37.978Z,4.00
2022-10-03T08:31:38.289Z,4.00
2022-10-03T08:32:37.959Z,4.00
2022-10-03T08:33:37.943Z,4.00
2022-10-03T08:34:37.934Z,4.00
2022-10-03T08:35:37.922Z,4.00
2022-10-03T08:36:37.906Z,8.00
2022-10-03T08:37:37.895Z,8.00
2022-10-03T08:38:37.879Z,4.00
2022-10-03T08:39:37.869Z,4.00
2022-10-03T08:40:37.855Z,4.00
2022-10-03T08:41:38.098Z,8.00
2022-10-03T08:42:37.835Z,4.00
2022-10-03T08:43:37.825Z,8.00
2022-10-03T08:44:37.806Z,12.00
2022-10-03T08:45:37.802Z,8.00
2022-10-03T08:46:37.858Z,12.00
2022-10-03T08:47:37.772Z,8.00
2022-10-03T08:48:37.764Z,12.00
2022-10-03T08:49:37.751Z,12.00
2022-10-03T08:50:37.740Z,16.00
2022-10-03T08:51:38.041Z,16.00
2022-10-03T08:52:37.708Z,12.00
2022-10-03T08:53:37.695Z,12.00
2022-10-03T08:54:37.687Z,12.00
2022-10-03T08:55:37.676Z,12.00
2022-10-03T08:56:37.666Z,8.00
2022-10-03T08:57:37.746Z,8.00
2022-10-03T08:58:37.638Z,8.00
2022-10-03T08:59:37.627Z,8.00
2022-10-03T09:00:37.611Z,12.00
2022-10-03T09:01:37.908Z,12.00
2022-10-03T09:02:37.653Z,16.00
2022-10-03T09:03:42.143Z,16.00
2022-10-03T09:04:37.564Z,16.00
2022-10-03T09:05:37.553Z,16.00
2022-10-03T09:06:48.062Z,12.00
2022-10-03T09:07:37.526Z,16.00
2022-10-03T09:08:37.515Z,12.00
2022-10-03T09:09:37.503Z,16.00
2022-10-03T09:10:37.487Z,16.00
2022-10-03T09:11:37.480Z,16.00
2022-10-03T09:12:37.463Z,16.00
2022-10-03T09:13:37.454Z,16.00
2022-10-03T09:14:37.441Z,16.00
2022-10-03T09:15:37.458Z,16.00
2022-10-03T09:16:37.676Z,20.00
2022-10-03T09:17:37.401Z,20.00
2022-10-03T09:18:37.392Z,20.00
2022-10-03T09:19:37.378Z,24.00
2022-10-03T09:20:37.371Z,28.00
2022-10-03T09:21:37.607Z,32.00
2022-10-03T09:22:37.344Z,32.00
2022-10-03T09:23:37.432Z,40.00
2022-10-03T09:24:37.315Z,44.00
2022-10-03T09:25:37.305Z,40.00
2022-10-03T09:26:37.398Z,32.00
2022-10-03T09:27:37.279Z,32.00
2022-10-03T09:28:37.319Z,32.00
2022-10-03T09:29:37.260Z,32.00
2022-10-03T09:30:37.259Z,32.00
2022-10-03T09:31:37.507Z,36.00
2022-10-03T09:32:37.218Z,48.00
2022-10-03T09:33:37.209Z,48.00
2022-10-03T09:34:37.198Z,44.00
2022-10-03T09:35:37.182Z,44.00
2022-10-03T09:36:37.169Z,48.00
2022-10-03T09:37:37.161Z,56.00
2022-10-03T09:38:37.253Z,52.00
2022-10-03T09:39:37.138Z,52.00
2022-10-03T09:40:37.122Z,56.00
2022-10-03T09:41:37.421Z,64.00
2022-10-03T09:42:37.100Z,68.00
2022-10-03T09:43:37.090Z,68.00
2022-10-03T09:44:37.079Z,64.00
2022-10-03T09:45:37.062Z,56.00
2022-10-03T09:46:37.083Z,56.00
2022-10-03T09:47:37.040Z,64.00
2022-10-03T09:48:37.025Z,60.00
2022-10-03T09:49:37.016Z,64.00
2022-10-03T09:50:37.001Z,68.00
2022-10-03T09:51:37.107Z,76.00
2022-10-03T09:52:36.985Z,88.00
2022-10-03T09:53:36.974Z,104.00
2022-10-03T09:54:36.955Z,128.00
2022-10-03T09:55:36.940Z,124.00
2022-10-03T09:56:37.175Z,112.00
2022-10-03T09:57:36.923Z,116.00
2022-10-03T09:58:36.931Z,120.00
2022-10-03T09:59:36.904Z,120.00
2022-10-03T10:00:36.927Z,132.00
2022-10-03T10:01:37.103Z,140.00
2022-10-03T10:02:36.858Z,140.00
2022-10-03T10:03:36.915Z,136.00
2022-10-03T10:04:54.198Z,132.00
2022-10-03T10:05:36.826Z,124.00
2022-10-03T10:06:37.042Z,124.00
2022-10-03T10:07:36.800Z,132.00
2022-10-03T10:08:36.791Z,144.00
2022-10-03T10:09:36.774Z,160.00
2022-10-03T10:10:36.761Z,176.00
2022-10-03T10:11:36.751Z,192.00
2022-10-03T10:12:36.744Z,208.00
2022-10-03T10:14:03.187Z,228.00
2022-10-03T10:14:36.716Z,240.00
2022-10-03T10:15:36.704Z,240.00
2022-10-03T10:16:36.818Z,248.00
2022-10-03T10:17:36.679Z,272.00
2022-10-03T10:18:36.672Z,296.00
2022-10-03T10:19:36.674Z,296.00
2022-10-03T10:20:36.642Z,304.00
2022-10-03T10:21:36.650Z,312.00
2022-10-03T10:22:36.635Z,324.00
2022-10-03T10:23:36.606Z,340.00
2022-10-03T10:24:36.596Z,328.00
2022-10-03T10:25:36.585Z,320.00
2022-10-03T10:26:36.579Z,292.00
2022-10-03T10:27:36.561Z,280.00
2022-10-03T10:28:36.578Z,252.00
2022-10-03T10:29:36.542Z,248.00
2022-10-03T10:30:36.527Z,248.00
2022-10-03T10:31:36.589Z,236.00
2022-10-03T10:32:36.507Z,212.00
2022-10-03T10:33:36.496Z,188.00
2022-10-03T10:34:36.477Z,188.00
2022-10-03T10:35:36.470Z,196.00
2022-10-03T10:36:36.640Z,200.00
2022-10-03T10:37:36.447Z,228.00
2022-10-03T10:38:36.430Z,252.00
2022-10-03T10:39:36.423Z,288.00
2022-10-03T10:40:36.513Z,308.00
2022-10-03T10:41:36.517Z,324.00
2022-10-03T10:42:36.390Z,300.00
2022-10-03T10:43:36.377Z,260.00
2022-10-03T10:44:36.366Z,256.00
2022-10-03T10:45:36.352Z,252.00
2022-10-03T10:46:36.448Z,280.00
2022-10-03T10:47:36.330Z,320.00
2022-10-03T10:48:36.317Z,344.00
2022-10-03T10:49:36.301Z,408.00
2022-10-03T10:50:36.295Z,488.00
2022-10-03T10:51:36.285Z,568.00
2022-10-03T10:52:36.266Z,596.00
2022-10-03T10:53:36.263Z,620.00
2022-10-03T10:54:36.244Z,684.00
2022-10-03T10:55:36.232Z,764.00
2022-10-03T10:56:36.221Z,860.00
2022-10-03T10:57:36.216Z,868.00
2022-10-03T10:58:36.200Z,756.00
2022-10-03T10:59:36.188Z,692.00
2022-10-03T11:00:36.198Z,708.00
2022-10-03T11:01:36.176Z,656.00
2022-10-03T11:02:36.151Z,620.00
2022-10-03T11:03:36.146Z,616.00
2022-10-03T11:04:36.170Z,596.00
2022-10-03T11:05:36.120Z,584.00
2022-10-03T11:06:36.194Z,576.00
2022-10-03T11:07:36.102Z,564.00
2022-10-03T11:08:36.088Z,560.00
2022-10-03T11:09:36.081Z,556.00
2022-10-03T11:10:36.169Z,548.00
2022-10-03T11:11:36.056Z,548.00
2022-10-03T11:12:36.040Z,560.00
2022-10-03T11:13:36.032Z,548.00
2022-10-03T11:14:36.022Z,544.00
2022-10-03T11:15:36.017Z,544.00
2022-10-03T11:16:36.051Z,548.00
2022-10-03T11:17:35.989Z,572.00
2022-10-03T11:18:35.984Z,592.00
2022-10-03T11:19:35.976Z,608.00
2022-10-03T11:20:35.955Z,616.00
2022-10-03T11:21:35.946Z,620.00
2022-10-03T11:22:35.947Z,612.00
2022-10-03T11:23:35.924Z,616.00
2022-10-03T11:24:35.911Z,632.00
2022-10-03T11:25:36.001Z,636.00
2022-10-03T11:26:35.895Z,636.00
2022-10-03T11:27:35.884Z,652.00
2022-10-03T11:28:35.934Z,680.00
2022-10-03T11:29:35.862Z,688.00
2022-10-03T11:30:35.847Z,704.00
2022-10-03T11:31:35.919Z,716.00
2022-10-03T11:32:35.832Z,724.00
2022-10-03T11:33:35.819Z,748.00
2022-10-03T11:34:35.804Z,788.00
2022-10-03T11:35:39.595Z,752.00
2022-10-03T11:36:35.789Z,740.00
2022-10-03T11:37:35.777Z,752.00
2022-10-03T11:38:35.767Z,756.00
2022-10-03T11:39:35.754Z,752.00
2022-10-03T11:40:35.744Z,756.00
2022-10-03T11:41:35.736Z,736.00
2022-10-03T11:42:35.727Z,720.00
2022-10-03T11:43:35.711Z,724.00
2022-10-03T11:44:35.699Z,732.00
2022-10-03T11:45:35.712Z,744.00
2022-10-03T11:46:35.687Z,756.00
2022-10-03T11:47:35.677Z,744.00
2022-10-03T11:48:35.660Z,712.00
2022-10-03T11:49:35.650Z,696.00
2022-10-03T11:50:35.639Z,684.00
2022-10-03T11:51:35.633Z,680.00
2022-10-03T11:52:35.621Z,660.00
2022-10-03T11:53:35.616Z,640.00
2022-10-03T11:54:35.598Z,604.00
2022-10-03T11:55:35.587Z,608.00
2022-10-03T11:56:35.577Z,620.00
2022-10-03T11:57:35.572Z,632.00
2022-10-03T11:58:35.559Z,616.00
2022-10-03T11:59:35.548Z,648.00
2022-10-03T12:00:35.545Z,704.00
2022-10-03T12:01:35.530Z,724.00
2022-10-03T12:02:35.596Z,740.00
2022-10-03T12:03:35.541Z,784.00
2022-10-03T12:04:35.498Z,824.00
2022-10-03T12:05:35.492Z,848.00
2022-10-03T12:06:35.510Z,760.00
2022-10-03T12:07:35.469Z,732.00
2022-10-03T12:08:35.456Z,744.00
2022-10-03T12:09:35.453Z,784.00
2022-10-03T12:10:35.440Z,844.00
2022-10-03T12:11:35.440Z,816.00
2022-10-03T12:12:35.423Z,744.00
2022-10-03T12:13:35.409Z,692.00
2022-10-03T12:14:35.401Z,676.00
2022-10-03T12:15:35.393Z,664.00
2022-10-03T12:16:35.453Z,688.00
2022-10-03T12:17:35.368Z,896.00
2022-10-03T12:18:35.364Z,728.00
2022-10-03T12:19:35.356Z,704.00
2022-10-03T12:20:35.349Z,724.00
2022-10-03T12:21:35.331Z,740.00
2022-10-03T12:22:35.322Z,788.00
2022-10-03T12:23:35.314Z,868.00
2022-10-03T12:24:35.303Z,844.00
2022-10-03T12:25:35.296Z,900.00
2022-10-03T12:26:35.287Z,880.00
2022-10-03T12:27:35.276Z,912.00
2022-10-03T12:28:35.346Z,964.00
2022-10-03T12:29:35.265Z,884.00
2022-10-03T12:30:35.253Z,872.00
2022-10-03T12:31:35.281Z,876.00
2022-10-03T12:32:35.345Z,916.00
2022-10-03T12:33:35.224Z,940.00
2022-10-03T12:34:35.212Z,940.00
2022-10-03T12:35:35.208Z,908.00
2022-10-03T12:36:35.199Z,992.00
2022-10-03T12:37:35.192Z,924.00
2022-10-03T12:38:35.180Z,912.00
2022-10-03T12:39:35.173Z,772.00
2022-10-03T12:40:35.160Z,756.00
2022-10-03T12:41:35.157Z,700.00
2022-10-03T12:42:35.144Z,692.00
2022-10-03T12:43:35.142Z,716.00
2022-10-03T12:44:35.127Z,764.00
2022-10-03T12:45:35.180Z,876.00
2022-10-03T12:46:35.114Z,840.00
2022-10-03T12:47:54.860Z,728.00
2022-10-03T12:48:35.089Z,744.00
2022-10-03T12:49:35.089Z,1692.00
2022-10-03T12:50:35.071Z,1856.00
2022-10-03T12:51:35.069Z,1844.00
2022-10-03T12:52:35.057Z,1840.00
2022-10-03T12:53:35.050Z,1820.00
2022-10-03T12:54:35.036Z,1788.00
2022-10-03T12:55:35.033Z,1396.00
2022-10-03T12:56:35.023Z,1824.00
2022-10-03T12:57:35.012Z,1816.00
2022-10-03T12:58:35.011Z,1808.00
2022-10-03T12:59:34.997Z,1844.00
2022-10-03T13:00:34.992Z,1860.00
2022-10-03T13:01:35.058Z,1884.00
2022-10-03T13:02:35.020Z,1876.00
2022-10-03T13:03:34.969Z,1864.00